Terminal Aerodrome Forecast
Issued by NWS Cleveland, OH

Home | Current Version | Previous Version | Graphics & Text | Print | Product List | Glossary On
Versions: 1 2 3 4 5 6 7 8 9 10 11 12 13 14 15 16 17 18 19 20 21 22 23 24 25 26 27 28
000
FTUS41 KCLE 041732
TAFCAK
TAF
KCAK 041732Z 0418/0518 20006KT P6SM SCT060
     FM042000 20006KT P6SM VCTS BKN045CB
     FM050200 15003KT P6SM SCT050
     FM050700 13004KT 4SM BR SCT120
     FM051400 17005KT P6SM SCT050=

USA.gov is the U.S. government's official web portal to all federal, state and local government web resources and services.